Time;durP1;ratioP1;P1;durP2;ratioP2;P2;SDS_P1;SDS_P2;PMS_P1;PMS_P2;Temp;Humidity;BMP_temperature;BMP_pressure;BME280_temperature;BME280_humidity;BME280_pressure;Samples;Min_cycle;Max_cycle;Signal;HPM_P1;HPM_P2
2021/04/28 00:00:09;;;;;;;17.38;10.30;;;8.00;66.80;;;;;;5073782;28;20059;-64
2021/04/28 00:02:35;;;;;;;21.73;11.27;;;7.90;67.10;;;;;;5072594;28;20446;-63
2021/04/28 00:05:07;;;;;;;17.13;10.18;;;8.00;66.70;;;;;;5072841;28;20480;-64
2021/04/28 00:07:33;;;;;;;17.45;11.00;;;8.00;66.40;;;;;;5073488;28;20036;-63
2021/04/28 00:10:00;;;;;;;16.38;10.43;;;8.00;66.70;;;;;;5073399;28;20024;-62
2021/04/28 00:12:26;;;;;;;19.70;11.00;;;7.90;66.90;;;;;;5072335;28;20024;-63
2021/04/28 00:14:51;;;;;;;18.98;11.30;;;7.80;66.90;;;;;;5071253;28;20048;-63
2021/04/28 00:17:17;;;;;;;18.10;11.80;;;7.80;67.10;;;;;;5071824;28;20025;-64
2021/04/28 00:19:43;;;;;;;18.15;10.75;;;7.80;67.20;;;;;;5073522;28;20055;-63
2021/04/28 00:22:09;;;;;;;19.77;10.75;;;7.80;67.20;;;;;;5073442;28;20027;-64
2021/04/28 00:24:35;;;;;;;19.00;11.50;;;7.90;67.00;;;;;;5073684;28;20029;-64
2021/04/28 00:27:01;;;;;;;19.98;10.95;;;7.80;67.10;;;;;;5072393;28;20511;-64
2021/04/28 00:29:26;;;;;;;21.77;11.35;;;7.70;67.00;;;;;;5071843;28;20033;-63
2021/04/28 00:31:52;;;;;;;17.17;10.77;;;7.70;67.20;;;;;;5072049;28;20028;-63
2021/04/28 00:34:18;;;;;;;19.75;11.57;;;7.70;67.70;;;;;;5073207;28;20078;-64
2021/04/28 00:36:43;;;;;;;16.88;10.77;;;7.60;67.40;;;;;;5073033;28;20092;-64
2021/04/28 00:39:09;;;;;;;17.17;11.20;;;7.60;67.60;;;;;;5090276;22;20055;-63
2021/04/28 00:41:35;;;;;;;17.88;10.82;;;7.60;67.70;;;;;;5071048;28;20027;-64
2021/04/28 00:44:01;;;;;;;18.48;10.43;;;7.60;67.80;;;;;;5071241;28;20096;-65
2021/04/28 00:46:26;;;;;;;17.70;10.65;;;7.60;67.80;;;;;;5071266;28;20020;-65
2021/04/28 00:48:52;;;;;;;16.65;11.25;;;7.50;68.10;;;;;;5069539;28;20477;-66
2021/04/28 00:51:18;;;;;;;16.92;10.95;;;7.50;68.10;;;;;;5069828;28;20024;-65
2021/04/28 00:53:45;;;;;;;18.80;10.93;;;7.50;68.60;;;;;;5071103;28;20027;-63
2021/04/28 00:56:11;;;;;;;18.90;11.95;;;7.40;68.60;;;;;;5070630;28;20496;-65
2021/04/28 00:58:37;;;;;;;21.05;11.23;;;7.40;68.70;;;;;;5070676;28;20091;-63
2021/04/28 01:01:03;;;;;;;17.35;11.00;;;7.40;68.70;;;;;;5069658;28;20476;-66
2021/04/28 01:03:30;;;;;;;16.88;11.00;;;7.30;68.90;;;;;;5071051;28;20117;-64
2021/04/28 01:06:01;;;;;;;18.13;11.00;;;7.30;68.90;;;;;;5070901;28;20017;-64
2021/04/28 01:08:27;;;;;;;19.60;11.45;;;7.30;68.60;;;;;;5069579;28;20052;-64
2021/04/28 01:10:55;;;;;;;18.55;11.32;;;7.40;68.80;;;;;;5071041;28;20027;-65
2021/04/28 01:13:22;;;;;;;17.52;11.13;;;7.30;68.70;;;;;;5070792;28;20483;-64
2021/04/28 01:15:49;;;;;;;18.70;11.18;;;7.30;68.80;;;;;;5070868;28;20056;-64
2021/04/28 01:18:16;;;;;;;18.38;11.85;;;7.20;69.00;;;;;;5070704;28;20122;-64
2021/04/28 01:20:43;;;;;;;18.17;10.82;;;7.20;69.20;;;;;;5070515;28;20037;-65
2021/04/28 01:23:10;;;;;;;17.75;10.82;;;7.10;69.50;;;;;;5069658;28;20024;-64
2021/04/28 01:25:37;;;;;;;16.48;11.05;;;7.10;69.80;;;;;;5070783;28;20032;-65
2021/04/28 01:28:35;;;;;;;20.00;12.95;;;7.10;69.70;;;;;;5069224;28;20036;-64
2021/04/28 01:31:05;;;;;;;;;;;7.20;69.20;;;;;;5047540;28;20042;-64
2021/04/28 01:33:37;;;;;;;19.20;11.18;;;7.10;69.20;;;;;;5070754;28;20003;-62
2021/04/28 01:36:06;;;;;;;19.73;11.95;;;7.20;69.30;;;;;;5070557;28;20040;-64
2021/04/28 01:38:38;;;;;;;16.58;10.98;;;7.10;69.40;;;;;;5070641;28;20364;-63
2021/04/28 01:41:04;;;;;;;18.00;10.95;;;7.10;69.90;;;;;;5069581;28;20472;-64
2021/04/28 01:43:31;;;;;;;17.30;10.88;;;7.10;69.90;;;;;;5070757;28;20473;-63
2021/04/28 01:45:57;;;;;;;17.70;10.95;;;7.00;70.40;;;;;;5070808;28;20362;-65
2021/04/28 01:48:22;;;;;;;19.65;11.27;;;7.00;70.50;;;;;;5070440;28;20099;-66
2021/04/28 01:50:50;;;;;;;18.75;11.50;;;7.00;70.30;;;;;;5070615;28;20096;-63
2021/04/28 01:53:18;;;;;;;17.17;11.30;;;6.90;70.40;;;;;;5070634;28;20408;-63
2021/04/28 01:55:49;;;;;;;17.55;10.40;;;6.90;71.20;;;;;;5069257;28;20027;-61
2021/04/28 01:58:15;;;;;;;17.23;11.35;;;6.90;71.80;;;;;;5069067;28;20500;-66
2021/04/28 02:00:41;;;;;;;18.88;10.80;;;6.80;71.40;;;;;;5070512;28;20070;-63
2021/04/28 02:03:07;;;;;;;17.60;11.60;;;6.80;71.90;;;;;;5069446;28;20053;-61
2021/04/28 02:05:33;;;;;;;17.63;11.77;;;6.80;71.80;;;;;;5069576;28;20064;-63
2021/04/28 02:07:59;;;;;;;18.10;11.73;;;6.70;72.20;;;;;;5069193;28;20082;-64
2021/04/28 02:10:25;;;;;;;17.13;11.38;;;6.70;72.10;;;;;;5070395;28;20392;-63
2021/04/28 02:12:52;;;;;;;18.80;11.48;;;6.60;72.30;;;;;;5070320;28;20473;-63
2021/04/28 02:15:20;;;;;;;17.90;12.00;;;6.50;72.70;;;;;;5069113;28;20025;-64
2021/04/28 02:17:50;;;;;;;18.70;11.65;;;6.50;73.00;;;;;;5070132;28;20028;-66
2021/04/28 02:20:16;;;;;;;19.08;11.25;;;6.40;73.60;;;;;;5070220;28;20118;-64
2021/04/28 02:22:43;;;;;;;17.42;11.43;;;6.30;74.30;;;;;;5070415;28;20028;-64
2021/04/28 02:25:12;;;;;;;17.70;11.30;;;6.30;74.20;;;;;;5070213;28;20032;-64
2021/04/28 02:27:39;;;;;;;18.75;11.45;;;6.40;73.70;;;;;;5068843;28;20037;-64
2021/04/28 02:30:07;;;;;;;16.40;11.40;;;6.40;73.40;;;;;;5068695;28;20025;-64
2021/04/28 02:32:33;;;;;;;17.92;11.77;;;6.40;73.30;;;;;;5070519;28;20057;-64
2021/04/28 02:34:59;;;;;;;18.60;10.68;;;6.40;73.20;;;;;;5070180;28;20388;-64
2021/04/28 02:37:28;;;;;;;17.92;11.13;;;6.50;73.30;;;;;;5069940;28;20357;-65
2021/04/28 02:40:06;;;;;;;18.17;11.55;;;6.40;73.50;;;;;;5071706;28;20507;-63
2021/04/28 02:42:32;;;;;;;;;;;6.40;74.40;;;;;;5074208;28;20050;-63
2021/04/28 02:45:00;;;;;;;19.45;11.15;;;6.30;75.10;;;;;;5072418;28;19911;-64
2021/04/28 02:47:28;;;;;;;16.67;11.10;;;6.30;74.80;;;;;;5072331;28;20484;-64
2021/04/28 02:49:53;;;;;;;19.60;11.20;;;6.30;75.00;;;;;;5073261;28;20318;-63
2021/04/28 02:52:21;;;;;;;17.83;11.30;;;6.30;75.00;;;;;;5073456;28;20048;-64
2021/04/28 02:54:49;;;;;;;19.33;11.48;;;6.40;75.30;;;;;;5073406;28;20033;-65
2021/04/28 02:57:15;;;;;;;19.40;11.25;;;6.30;75.30;;;;;;5073157;28;20048;-64
2021/04/28 02:59:40;;;;;;;18.80;11.60;;;6.30;75.10;;;;;;5073181;28;20056;-64
2021/04/28 03:02:07;;;;;;;17.23;10.90;;;6.30;75.80;;;;;;5073270;28;20103;-64
2021/04/28 03:04:37;;;;;;;18.73;11.50;;;6.30;75.80;;;;;;5072007;28;20031;-63
2021/04/28 03:07:03;;;;;;;17.73;11.15;;;6.20;76.20;;;;;;5072130;28;20510;-63
2021/04/28 03:09:28;;;;;;;28.67;18.77;;;6.20;76.60;;;;;;5072961;28;20480;-63
2021/04/28 03:11:54;;;;;;;24.42;14.77;;;6.30;77.40;;;;;;5073447;28;20032;-63
2021/04/28 03:14:20;;;;;;;19.55;11.90;;;6.30;76.80;;;;;;5073232;28;20021;-63
2021/04/28 03:16:46;;;;;;;21.17;11.73;;;6.40;77.10;;;;;;5071823;28;20021;-64
2021/04/28 03:19:12;;;;;;;19.23;11.45;;;6.20;77.50;;;;;;5071578;28;20052;-63
2021/04/28 03:21:43;;;;;;;17.00;11.07;;;6.20;78.10;;;;;;5073108;28;20028;-64
2021/04/28 03:24:09;;;;;;;19.33;11.10;;;6.20;78.50;;;;;;5072784;28;20488;-63
2021/04/28 03:26:37;;;;;;;18.80;11.30;;;6.20;79.00;;;;;;5073070;28;20071;-64
2021/04/28 03:29:03;;;;;;;19.33;11.18;;;6.20;79.90;;;;;;5072477;28;20029;-65
2021/04/28 03:31:29;;;;;;;17.70;11.52;;;6.10;81.30;;;;;;5072904;28;20476;-64
2021/04/28 03:33:55;;;;;;;20.30;11.10;;;6.10;82.60;;;;;;5073115;28;20028;-64
2021/04/28 03:36:20;;;;;;;17.90;11.02;;;6.10;82.40;;;;;;5072829;28;20021;-62
2021/04/28 03:38:46;;;;;;;18.48;11.38;;;6.00;84.50;;;;;;5072209;28;20031;-64
2021/04/28 03:41:12;;;;;;;17.88;10.48;;;6.00;85.80;;;;;;5071283;28;20028;-61
2021/04/28 03:43:38;;;;;;;18.00;11.35;;;6.00;85.60;;;;;;5072510;28;20626;-64
2021/04/28 03:46:04;;;;;;;18.02;11.50;;;5.90;86.50;;;;;;5072579;28;20028;-64
2021/04/28 03:48:29;;;;;;;17.05;11.35;;;6.00;85.50;;;;;;5072078;28;20510;-64
2021/04/28 03:50:55;;;;;;;18.50;11.15;;;6.00;87.00;;;;;;5072003;28;20116;-64
2021/04/28 03:53:21;;;;;;;18.13;12.32;;;5.90;88.10;;;;;;5072521;28;20024;-62
2021/04/28 03:55:46;;;;;;;20.08;11.52;;;5.80;89.70;;;;;;5071442;28;20073;-64
2021/04/28 03:58:12;;;;;;;25.88;12.57;;;5.80;90.20;;;;;;5072199;28;20024;-64
2021/04/28 04:00:38;;;;;;;18.65;11.85;;;5.70;91.70;;;;;;5071063;28;20081;-64
2021/04/28 04:03:04;;;;;;;19.23;11.82;;;5.70;92.10;;;;;;5072349;28;20074;-64
2021/04/28 04:05:31;;;;;;;19.77;12.43;;;5.70;92.00;;;;;;5072538;28;20024;-64
2021/04/28 04:07:56;;;;;;;17.77;11.48;;;5.70;91.90;;;;;;5072034;28;20441;-64
2021/04/28 04:10:22;;;;;;;18.38;11.90;;;5.70;91.50;;;;;;5071658;28;20126;-63
2021/04/28 04:12:48;;;;;;;19.40;12.10;;;5.80;91.70;;;;;;5070660;28;20032;-65
2021/04/28 04:15:14;;;;;;;21.80;12.80;;;5.80;92.50;;;;;;5070719;28;20021;-63
2021/04/28 04:17:39;;;;;;;18.63;12.00;;;5.80;93.60;;;;;;5071812;28;20480;-63
2021/04/28 04:20:06;;;;;;;19.60;11.85;;;5.70;93.40;;;;;;5071654;28;20380;-64
2021/04/28 04:22:32;;;;;;;18.40;12.00;;;5.70;93.50;;;;;;5071720;28;20052;-63
2021/04/28 04:24:57;;;;;;;20.58;12.07;;;5.60;94.00;;;;;;5070286;28;20025;-64
2021/04/28 04:27:23;;;;;;;18.67;11.93;;;5.60;95.20;;;;;;5071445;28;20362;-64
2021/04/28 04:29:49;;;;;;;18.58;11.80;;;5.70;96.20;;;;;;5069794;28;20111;-64
2021/04/28 04:32:15;;;;;;;19.88;11.52;;;5.70;96.00;;;;;;5071505;28;20055;-64
2021/04/28 04:34:40;;;;;;;19.00;11.40;;;5.70;95.90;;;;;;5070251;28;20032;-64
2021/04/28 04:37:06;;;;;;;19.33;11.43;;;5.80;95.80;;;;;;5071201;28;20025;-64
2021/04/28 04:39:32;;;;;;;17.52;11.52;;;5.80;95.90;;;;;;5071034;28;20039;-65
2021/04/28 04:41:57;;;;;;;18.63;11.25;;;5.90;95.90;;;;;;5069804;28;20039;-64
2021/04/28 04:44:23;;;;;;;18.63;11.40;;;6.00;95.90;;;;;;5071355;28;20032;-66
2021/04/28 04:46:49;;;;;;;17.92;11.85;;;6.10;94.90;;;;;;5071674;28;20033;-62
2021/04/28 04:49:14;;;;;;;18.98;11.32;;;6.20;95.60;;;;;;5071718;28;20024;-62
2021/04/28 04:51:40;;;;;;;17.30;11.18;;;6.30;96.00;;;;;;5071437;28;20087;-63
2021/04/28 04:54:06;;;;;;;20.33;12.20;;;6.50;95.10;;;;;;5072012;28;20472;-64
2021/04/28 04:56:32;;;;;;;21.17;12.77;;;6.60;96.40;;;;;;5073950;28;20020;-65
2021/04/28 04:58:58;;;;;;;19.92;11.57;;;6.70;95.20;;;;;;5071250;28;20391;-65
2021/04/28 05:01:23;;;;;;;18.85;11.68;;;6.70;92.50;;;;;;5071362;28;20027;-64
2021/04/28 05:03:49;;;;;;;17.73;11.70;;;6.70;92.30;;;;;;5073025;28;20052;-63
2021/04/28 05:06:16;;;;;;;25.30;12.75;;;6.70;91.80;;;;;;5071041;28;20024;-65
2021/04/28 05:08:41;;;;;;;18.65;11.55;;;6.60;93.40;;;;;;5070567;28;20035;-63
2021/04/28 05:11:07;;;;;;;19.90;11.90;;;6.60;91.90;;;;;;5069830;28;20028;-64
2021/04/28 05:13:32;;;;;;;19.25;11.43;;;6.70;93.10;;;;;;5070704;28;20064;-65
2021/04/28 05:15:58;;;;;;;23.00;14.13;;;6.70;92.50;;;;;;5069779;28;20028;-64
2021/04/28 05:18:24;;;;;;;18.08;10.88;;;6.70;92.10;;;;;;5070716;28;20043;-65
2021/04/28 05:20:49;;;;;;;20.08;12.00;;;6.80;91.10;;;;;;5070678;28;20044;-65
2021/04/28 05:23:15;;;;;;;18.40;11.70;;;6.90;90.40;;;;;;5070569;28;20025;-65
2021/04/28 05:25:41;;;;;;;21.35;11.88;;;6.90;90.90;;;;;;5070871;28;20020;-64
2021/04/28 05:28:06;;;;;;;19.13;11.95;;;7.00;90.50;;;;;;5070719;28;20054;-63
2021/04/28 05:30:32;;;;;;;17.88;12.13;;;7.10;89.60;;;;;;5071169;28;20029;-63
2021/04/28 05:32:58;;;;;;;19.00;11.68;;;7.10;89.30;;;;;;5072417;28;20417;-64
2021/04/28 05:35:24;;;;;;;16.95;11.25;;;7.20;90.50;;;;;;5069174;28;20032;-62
2021/04/28 05:37:50;;;;;;;19.88;11.95;;;7.30;87.80;;;;;;5070153;28;20028;-64
2021/04/28 05:40:16;;;;;;;19.88;12.13;;;7.40;87.20;;;;;;5069002;28;20037;-64
2021/04/28 05:42:42;;;;;;;20.80;12.25;;;7.40;86.50;;;;;;5070406;28;20032;-64
2021/04/28 05:45:10;;;;;;;19.48;11.73;;;7.50;86.70;;;;;;5070467;28;20025;-66
2021/04/28 05:47:36;;;;;;;19.08;12.40;;;7.50;86.80;;;;;;5070465;28;20024;-66
2021/04/28 05:50:04;;;;;;;17.65;12.50;;;7.60;86.10;;;;;;5070070;28;20465;-66
2021/04/28 05:52:30;;;;;;;17.92;12.30;;;7.60;87.40;;;;;;5069195;28;20058;-65
2021/04/28 05:54:55;;;;;;;18.02;11.63;;;7.70;85.20;;;;;;5070233;28;20082;-59
2021/04/28 05:57:21;;;;;;;18.13;12.73;;;7.80;84.70;;;;;;5068798;28;20024;-64
2021/04/28 05:59:47;;;;;;;19.50;11.63;;;7.90;82.70;;;;;;5070192;28;20445;-65
2021/04/28 06:02:12;;;;;;;19.75;12.23;;;7.90;81.70;;;;;;5068893;28;20048;-66
2021/04/28 06:04:38;;;;;;;19.13;11.70;;;8.00;84.40;;;;;;5070403;28;20035;-64
2021/04/28 06:07:04;;;;;;;18.38;11.98;;;8.10;82.20;;;;;;5070274;28;20028;-63
2021/04/28 06:09:30;;;;;;;18.20;12.65;;;8.20;81.50;;;;;;5070023;28;20059;-64
2021/04/28 06:11:56;;;;;;;19.65;12.30;;;8.30;81.70;;;;;;5069056;28;20067;-63
2021/04/28 06:14:22;;;;;;;18.67;12.65;;;8.30;80.40;;;;;;5072309;28;20021;-56
2021/04/28 06:16:47;;;;;;;18.63;12.63;;;8.30;81.90;;;;;;5072754;28;20052;-64
2021/04/28 06:19:14;;;;;;;19.20;13.13;;;8.40;81.40;;;;;;5072458;28;20473;-64
2021/04/28 06:21:40;;;;;;;19.85;12.95;;;8.50;81.60;;;;;;5073781;28;20066;-63
2021/04/28 06:24:07;;;;;;;18.88;12.40;;;8.60;80.90;;;;;;5073864;28;20025;-64
2021/04/28 06:26:34;;;;;;;21.77;13.13;;;8.60;80.70;;;;;;5073807;28;20074;-66
2021/04/28 06:28:59;;;;;;;18.65;13.25;;;8.70;81.50;;;;;;5073484;28;20035;-65
2021/04/28 06:31:25;;;;;;;19.05;12.25;;;8.80;81.40;;;;;;5073745;28;20103;-64
2021/04/28 06:33:51;;;;;;;18.30;12.73;;;8.90;81.80;;;;;;5074144;28;20024;-62
2021/04/28 06:36:17;;;;;;;21.70;13.00;;;9.00;80.10;;;;;;5073781;28;20499;-62
2021/04/28 06:38:43;;;;;;;20.80;12.93;;;9.00;80.40;;;;;;5079770;22;20037;-63
2021/04/28 06:41:08;;;;;;;18.48;12.93;;;9.10;80.10;;;;;;5055559;28;20105;-63
2021/04/28 06:43:37;;;;;;;18.92;13.05;;;9.10;79.90;;;;;;5055726;28;20025;-59
2021/04/28 06:46:03;;;;;;;20.85;13.45;;;9.20;78.70;;;;;;5054116;28;20021;-65
2021/04/28 06:48:28;;;;;;;19.95;13.20;;;9.30;78.40;;;;;;5055730;28;20032;-64
2021/04/28 06:50:54;;;;;;;18.58;12.23;;;9.30;78.00;;;;;;5053925;28;20025;-64
2021/04/28 06:53:22;;;;;;;20.67;13.50;;;9.40;78.70;;;;;;5054290;28;20017;-64
2021/04/28 06:55:48;;;;;;;19.67;13.35;;;9.50;79.30;;;;;;5055087;28;20481;-63
2021/04/28 06:58:13;;;;;;;19.10;13.48;;;9.50;79.50;;;;;;5055301;28;20029;-63
2021/04/28 07:00:39;;;;;;;20.20;14.23;;;9.60;77.60;;;;;;5053840;28;20029;-64
2021/04/28 07:03:05;;;;;;;18.75;13.88;;;9.60;79.10;;;;;;5054139;28;20025;-65
2021/04/28 07:05:30;;;;;;;19.38;13.30;;;9.70;77.10;;;;;;5054003;28;20029;-63
2021/04/28 07:07:56;;;;;;;21.10;13.70;;;9.80;78.40;;;;;;5053598;28;20025;-64
2021/04/28 07:10:23;;;;;;;19.23;13.88;;;9.90;77.50;;;;;;5054143;28;20025;-64
2021/04/28 07:12:49;;;;;;;17.60;14.15;;;10.00;79.00;;;;;;5055455;28;20550;-65
2021/04/28 07:15:15;;;;;;;20.08;13.88;;;10.00;79.60;;;;;;5055771;28;20370;-65
2021/04/28 07:17:44;;;;;;;20.42;13.27;;;10.20;78.10;;;;;;5055857;28;20021;-64
2021/04/28 07:20:10;;;;;;;18.27;13.13;;;10.30;77.20;;;;;;5055210;28;20086;-61
2021/04/28 07:22:36;;;;;;;21.48;13.35;;;10.30;76.70;;;;;;5055353;28;20029;-64
2021/04/28 07:25:03;;;;;;;19.13;13.48;;;10.40;77.10;;;;;;5049427;28;20573;-65
2021/04/28 07:27:28;;;;;;;19.17;13.80;;;10.40;75.40;;;;;;5058432;28;20029;-64
2021/04/28 07:29:54;;;;;;;19.13;13.88;;;10.50;75.80;;;;;;5060855;28;20044;-65
2021/04/28 07:32:20;;;;;;;19.23;14.00;;;10.50;75.80;;;;;;5049282;28;20037;-64
2021/04/28 07:34:45;;;;;;;19.02;14.13;;;10.60;75.00;;;;;;5061199;28;20438;-64
2021/04/28 07:37:11;;;;;;;21.20;13.93;;;10.60;74.60;;;;;;5074926;28;20021;-64
2021/04/28 07:39:37;;;;;;;23.00;14.75;;;10.60;76.00;;;;;;5072081;28;20032;-62
2021/04/28 07:42:03;;;;;;;20.17;13.63;;;10.80;76.00;;;;;;5066244;28;20035;-65
2021/04/28 07:44:30;;;;;;;20.70;14.38;;;10.90;75.70;;;;;;5062244;28;20463;-64
2021/04/28 07:46:57;;;;;;;22.13;15.32;;;11.00;77.00;;;;;;5071289;28;20020;-65
2021/04/28 07:49:23;;;;;;;20.60;14.75;;;11.10;76.90;;;;;;5073792;28;20025;-65
2021/04/28 07:51:48;;;;;;;19.60;14.13;;;11.20;75.30;;;;;;5072764;28;20092;-66
2021/04/28 07:54:14;;;;;;;20.05;14.88;;;11.30;75.50;;;;;;5073080;28;20070;-65
2021/04/28 07:56:40;;;;;;;19.77;14.02;;;11.50;75.10;;;;;;5073142;28;20035;-64
2021/04/28 07:59:05;;;;;;;19.60;14.98;;;11.50;76.50;;;;;;5071407;28;20109;-65
2021/04/28 08:01:31;;;;;;;20.58;14.10;;;11.60;73.90;;;;;;5052937;28;20029;-64
2021/04/28 08:03:59;;;;;;;20.33;13.52;;;11.80;72.90;;;;;;5052911;28;20153;-67
2021/04/28 08:06:25;;;;;;;20.23;14.20;;;11.90;73.60;;;;;;5053482;28;20036;-63
2021/04/28 08:08:51;;;;;;;22.17;14.50;;;11.90;73.20;;;;;;5052464;28;20029;-64
2021/04/28 08:11:19;;;;;;;19.42;14.45;;;12.10;73.30;;;;;;5053378;28;20021;-59
2021/04/28 08:13:47;;;;;;;20.85;14.80;;;12.20;72.60;;;;;;5055978;28;20473;-61
2021/04/28 08:16:13;;;;;;;20.55;14.40;;;12.40;72.50;;;;;;5068114;28;20074;-60
2021/04/28 08:18:38;;;;;;;20.45;15.30;;;12.50;71.20;;;;;;5071899;28;20412;-61
2021/04/28 08:21:04;;;;;;;20.15;15.13;;;12.80;72.20;;;;;;5072467;28;20020;-60
2021/04/28 08:23:30;;;;;;;21.73;14.30;;;;;;;;;;5072331;28;20020;-63
2021/04/28 08:26:04;;;;;;;19.92;14.55;;;12.90;71.20;;;;;;5052017;28;20021;-63
2021/04/28 08:28:32;;;;;;;21.50;15.02;;;13.20;70.50;;;;;;5033664;28;20022;-62
2021/04/28 08:30:58;;;;;;;19.20;14.90;;;13.30;70.20;;;;;;5033527;28;20440;-62
2021/04/28 08:33:24;;;;;;;21.60;14.75;;;13.40;69.30;;;;;;5033668;28;20099;-62
2021/04/28 08:35:50;;;;;;;22.17;15.63;;;13.40;70.00;;;;;;5046384;28;20021;-62
2021/04/28 08:38:16;;;;;;;19.63;14.65;;;13.30;69.00;;;;;;5051941;28;20025;-63
2021/04/28 08:40:42;;;;;;;18.98;14.25;;;13.30;69.20;;;;;;5051423;28;20480;-61
2021/04/28 08:43:07;;;;;;;22.95;14.30;;;13.30;68.90;;;;;;5051746;28;20129;-63
2021/04/28 08:45:33;;;;;;;22.83;15.43;;;;;;;;;;5051248;28;20560;-64
2021/04/28 08:47:59;;;;;;;19.65;13.95;;;;;;;;;;5051898;28;20388;-63
2021/04/28 08:50:25;;;;;;;22.70;14.35;;;13.40;68.70;;;;;;5051540;28;20350;-62
2021/04/28 08:52:52;;;;;;;18.90;14.70;;;13.70;68.10;;;;;;5053086;28;20025;-64
2021/04/28 08:55:18;;;;;;;22.02;15.48;;;13.70;69.30;;;;;;5053237;28;20028;-63
2021/04/28 08:57:44;;;;;;;20.42;14.63;;;13.70;67.30;;;;;;5051748;28;20017;-60
2021/04/28 09:00:11;;;;;;;20.05;14.48;;;13.80;67.90;;;;;;5063271;28;20032;-63
2021/04/28 09:02:53;;;;;;;22.48;15.30;;;13.90;67.90;;;;;;5071245;28;20062;-61
2021/04/28 09:05:19;;;;;;;20.20;15.82;;;14.10;68.50;;;;;;5071407;28;20028;-65
2021/04/28 09:07:45;;;;;;;21.35;15.50;;;14.40;68.10;;;;;;5072572;28;20021;-64
2021/04/28 09:10:17;;;;;;;20.90;15.25;;;14.50;67.20;;;;;;5072732;28;20253;-62
2021/04/28 09:12:55;;;;;;;22.98;15.70;;;14.60;67.60;;;;;;5072343;28;20021;-64
2021/04/28 09:15:41;;;;;;;21.92;15.95;;;14.60;66.50;;;;;;5072729;28;20109;-64
2021/04/28 09:18:18;;;;;;;21.77;15.15;;;14.90;67.50;;;;;;5072517;28;20032;-65
2021/04/28 09:20:52;;;;;;;22.88;16.40;;;;;;;;;;5072673;28;20025;-64
2021/04/28 09:23:27;;;;;;;23.17;16.95;;;;;;;;;;5071355;28;20121;-65
2021/04/28 09:25:54;;;;;;;21.92;15.57;;;;;;;;;;5071449;28;20021;-64
2021/04/28 09:28:22;;;;;;;19.98;15.43;;;;;;;;;;5034433;28;20037;-65
2021/04/28 09:30:48;;;;;;;24.58;15.93;;;;;;;;;;5032320;28;20108;-63
2021/04/28 09:33:14;;;;;;;22.75;15.00;;;;;;;;;;5032204;28;20393;-61
2021/04/28 09:35:40;;;;;;;24.25;15.57;;;;;;;;;;5033132;28;20028;-63
2021/04/28 09:38:06;;;;;;;24.33;15.52;;;;;;;;;;5031108;28;20107;-60
2021/04/28 09:40:43;;;;;;;23.75;15.10;;;;;;;;;;5030950;28;20021;-62
2021/04/28 09:43:09;;;;;;;20.98;15.95;;;15.10;65.40;;;;;;5031257;28;20112;-64
2021/04/28 09:45:51;;;;;;;20.65;15.45;;;16.00;62.80;;;;;;5031007;28;20022;-62
2021/04/28 09:48:17;;;;;;;21.75;15.38;;;;;;;;;;5032793;28;20025;-65
2021/04/28 09:50:43;;;;;;;22.30;15.95;;;16.10;63.10;;;;;;5034939;28;20037;-62
2021/04/28 09:53:20;;;;;;;22.08;16.13;;;16.80;61.60;;;;;;5035100;28;20052;-62
2021/04/28 09:55:46;;;;;;;22.30;16.27;;;16.60;61.20;;;;;;5036624;28;20092;-63
2021/04/28 09:58:13;;;;;;;23.70;16.05;;;;;;;;;;5035987;28;20385;-64
2021/04/28 10:00:39;;;;;;;21.15;16.05;;;;;;;;;;5036213;28;20512;-63
2021/04/28 10:03:08;;;;;;;22.23;15.63;;;;;;;;;;5034876;28;20405;-61
2021/04/28 10:05:35;;;;;;;22.48;16.20;;;;;;;;;;5034969;28;20040;-61
2021/04/28 10:08:07;;;;;;;21.15;15.82;;;;;;;;;;5035993;28;20025;-64
2021/04/28 10:10:33;;;;;;;27.60;15.32;;;;;;;;;;5036090;28;20342;-61
2021/04/28 10:12:59;;;;;;;24.42;15.63;;;;;;;;;;5035621;28;20021;-62
2021/04/28 10:15:26;;;;;;;22.10;15.63;;;;;;;;;;5035570;28;20025;-63
2021/04/28 10:17:52;;;;;;;21.45;16.00;;;;;;;;;;5034368;28;20060;-61
2021/04/28 10:20:18;;;;;;;20.35;17.00;;;;;;;;;;5035563;28;20450;-61
2021/04/28 10:22:44;;;;;;;26.55;16.10;;;;;;;;;;5037149;28;20040;-62
2021/04/28 10:25:11;;;;;;;23.23;17.25;;;;;;;;;;5034809;28;20091;-62
2021/04/28 10:27:39;;;;;;;21.23;15.90;;;16.80;61.90;;;;;;5034141;28;20025;-62
2021/04/28 10:30:06;;;;;;;21.98;16.88;;;18.10;56.40;;;;;;5035510;28;20378;-63
2021/04/28 10:32:34;;;;;;;24.85;16.73;;;;;;;;;;5035509;28;20028;-61
2021/04/28 10:35:00;;;;;;;;;;;;;;;;;;5034808;28;20097;-63
2021/04/28 10:37:31;;;;;;;21.15;15.88;;;;;;;;;;5034779;28;19905;-61
2021/04/28 10:39:57;;;;;;;23.80;16.55;;;;;;;;;;5033993;28;20033;-61
2021/04/28 10:42:23;;;;;;;22.55;16.38;;;;;;;;;;5035476;28;20064;-64
2021/04/28 10:44:50;;;;;;;20.98;17.02;;;;;;;;;;5034163;28;20026;-62
2021/04/28 10:47:20;;;;;;;22.52;17.30;;;;;;;;;;5035799;28;20028;-63
2021/04/28 10:50:04;;;;;;;20.45;15.52;;;;;;;;;;5035063;28;20052;-63
2021/04/28 10:52:33;;;;;;;21.23;17.13;;;;;;;;;;5033955;28;20392;-64
2021/04/28 10:55:00;;;;;;;22.08;16.67;;;;;;;;;;5035483;28;20793;-64
2021/04/28 10:57:36;;;;;;;20.60;15.23;;;;;;;;;;5035356;28;20520;-63
2021/04/28 11:00:22;;;;;;;19.50;15.57;;;;;;;;;;5033064;28;20032;-62
2021/04/28 11:02:49;;;;;;;23.10;15.43;;;;;;;;;;5034034;28;20034;-63
2021/04/28 11:05:26;;;;;;;19.98;15.52;;;;;;;;;;5035235;28;20501;-62
2021/04/28 11:07:53;;;;;;;19.70;15.20;;;;;;;;;;5033933;28;20084;-64
2021/04/28 11:10:28;;;;;;;20.67;16.30;;;;;;;;;;5033200;28;20026;-62
2021/04/28 11:13:13;;;;;;;20.70;16.05;;;;;;;;;;5033706;28;20483;-61
2021/04/28 11:15:58;;;;;;;20.80;16.00;;;;;;;;;;5034802;28;20028;-62
2021/04/28 11:18:43;;;;;;;20.05;16.02;;;;;;;;;;5035142;28;20018;-60
2021/04/28 11:21:09;;;;;;;20.90;17.10;;;;;;;;;;5034513;28;20502;-62
2021/04/28 11:23:36;;;;;;;25.65;16.80;;;;;;;;;;5033204;28;20083;-64
2021/04/28 11:26:20;;;;;;;21.33;16.33;;;;;;;;;;5033622;28;20026;-64
2021/04/28 11:28:49;;;;;;;20.38;15.63;;;;;;;;;;5033006;28;20025;-64
2021/04/28 11:31:22;;;;;;;19.75;15.40;;;;;;;;;;5033463;28;20398;-64
2021/04/28 11:33:48;;;;;;;21.45;15.52;;;;;;;;;;5033069;28;20026;-62
2021/04/28 11:36:16;;;;;;;21.23;15.82;;;;;;;;;;5034394;28;20056;-64
2021/04/28 11:38:44;;;;;;;21.30;17.13;;;;;;;;;;5032717;28;20025;-62
2021/04/28 11:41:11;;;;;;;20.08;15.77;;;;;;;;;;5033398;28;20684;-63
2021/04/28 11:43:41;;;;;;;20.83;15.45;;;;;;;;;;5034200;28;20041;-63
2021/04/28 11:46:13;;;;;;;20.38;15.43;;;18.30;56.80;;;;;;5034824;28;20389;-64
2021/04/28 11:48:40;;;;;;;21.55;16.13;;;26.80;43.30;;;;;;5033785;28;20083;-61
2021/04/28 11:51:29;;;;;;;19.05;15.73;;;27.30;41.70;;;;;;5034359;28;20021;-63
2021/04/28 11:54:01;;;;;;;20.05;15.98;;;27.80;41.90;;;;;;5033703;28;20022;-62
2021/04/28 11:56:36;;;;;;;20.10;17.13;;;28.30;40.30;;;;;;5034216;28;20028;-63
2021/04/28 11:59:03;;;;;;;21.48;16.48;;;28.70;41.00;;;;;;5033936;28;20049;-62
2021/04/28 12:01:31;;;;;;;20.50;16.42;;;27.90;40.90;;;;;;5035902;28;20029;-64
2021/04/28 12:04:08;;;;;;;19.88;16.48;;;27.90;40.60;;;;;;5032421;28;20533;-63
2021/04/28 12:06:37;;;;;;;21.48;16.52;;;28.30;41.00;;;;;;5033877;28;20022;-63
2021/04/28 12:09:07;;;;;;;19.63;16.27;;;;;;;;;;5032094;28;20108;-63
2021/04/28 12:11:33;;;;;;;20.40;15.65;;;;;;;;;;5032255;28;20080;-62
2021/04/28 12:13:59;;;;;;;20.60;16.35;;;;;;;;;;5032102;28;20032;-63
2021/04/28 12:16:25;;;;;;;19.73;16.05;;;;;;;;;;5032423;28;20114;-60
2021/04/28 12:19:05;;;;;;;22.35;16.10;;;;;;;;;;5033218;28;20541;-63
2021/04/28 12:21:31;;;;;;;19.70;15.90;;;;;;;;;;5031906;28;20028;-62
2021/04/28 12:23:59;;;;;;;21.63;15.00;;;29.00;39.50;;;;;;5033501;28;20021;-60
2021/04/28 12:26:25;;;;;;;19.80;16.63;;;;;;;;;;5033527;28;20681;-64
2021/04/28 12:28:51;;;;;;;21.65;17.30;;;28.40;40.00;;;;;;5033227;28;20021;-62
2021/04/28 12:31:16;;;;;;;19.63;16.27;;;29.70;39.50;;;;;;5036199;28;20374;-58
2021/04/28 12:33:43;;;;;;;21.75;17.00;;;;;;;;;;5058501;28;20100;-61
2021/04/28 12:36:09;;;;;;;20.05;16.25;;;28.10;38.90;;;;;;4708767;28;10000384;-64
2021/04/28 12:41:02;;;;;;;18.75;16.13;;;31.40;37.90;;;;;;5016893;28;20072;-63
2021/04/28 12:43:33;;;;;;;18.80;15.55;;;;;;;;;;5017825;28;20030;-63
2021/04/28 12:46:06;;;;;;;18.23;15.15;;;31.20;36.70;;;;;;5020032;28;20025;-61
2021/04/28 12:48:51;;;;;;;18.67;15.18;;;30.80;35.80;;;;;;5025524;28;20026;-62
2021/04/28 12:51:16;;;;;;;21.08;15.80;;;31.00;36.20;;;;;;5008382;28;20104;-62
2021/04/28 12:53:42;;;;;;;19.20;15.73;;;31.50;35.60;;;;;;4996939;28;20107;-61
2021/04/28 12:56:08;;;;;;;18.98;15.43;;;30.80;35.40;;;;;;4989801;28;20439;-61